sensor_id;sensor_type;location;lat;lon;timestamp;temperature;humidity
25718;DHT22;13574;52.040;5.692;2022-12-18T00:01:32;1.70;99.90
25718;DHT22;13574;52.040;5.692;2022-12-18T00:04:00;1.60;99.90
25718;DHT22;13574;52.040;5.692;2022-12-18T00:06:28;1.60;99.90
25718;DHT22;13574;52.040;5.692;2022-12-18T00:08:55;1.50;99.90
25718;DHT22;13574;52.040;5.692;2022-12-18T00:11:24;1.20;99.90
25718;DHT22;13574;52.040;5.692;2022-12-18T00:13:51;1.40;99.90
25718;DHT22;13574;52.040;5.692;2022-12-18T00:16:20;1.30;99.90
25718;DHT22;13574;52.040;5.692;2022-12-18T00:18:47;1.30;99.90
25718;DHT22;13574;52.040;5.692;2022-12-18T00:21:14;1.50;99.90
25718;DHT22;13574;52.040;5.692;2022-12-18T00:23:41;1.40;99.90
25718;DHT22;13574;52.040;5.692;2022-12-18T00:26:13;1.30;99.90
25718;DHT22;13574;52.040;5.692;2022-12-18T00:28:40;1.10;99.90
25718;DHT22;13574;52.040;5.692;2022-12-18T00:31:09;1.00;99.90
25718;DHT22;13574;52.040;5.692;2022-12-18T00:33:36;1.10;99.90
25718;DHT22;13574;52.040;5.692;2022-12-18T00:36:07;0.90;99.90
25718;DHT22;13574;52.040;5.692;2022-12-18T00:38:34;0.90;99.90
25718;DHT22;13574;52.040;5.692;2022-12-18T00:41:00;0.80;99.90
25718;DHT22;13574;52.040;5.692;2022-12-18T00:43:26;0.80;99.90
25718;DHT22;13574;52.040;5.692;2022-12-18T00:45:52;0.50;99.90
25718;DHT22;13574;52.040;5.692;2022-12-18T00:48:18;0.70;99.90
25718;DHT22;13574;52.040;5.692;2022-12-18T00:50:44;0.70;99.90
25718;DHT22;13574;52.040;5.692;2022-12-18T00:53:10;0.50;99.90
25718;DHT22;13574;52.040;5.692;2022-12-18T00:55:37;0.40;99.90
25718;DHT22;13574;52.040;5.692;2022-12-18T00:58:04;0.40;99.90
25718;DHT22;13574;52.040;5.692;2022-12-18T01:00:29;0.30;99.90
25718;DHT22;13574;52.040;5.692;2022-12-18T01:02:55;0.30;99.90
25718;DHT22;13574;52.040;5.692;2022-12-18T01:05:21;0.30;99.90
25718;DHT22;13574;52.040;5.692;2022-12-18T01:07:46;0.40;99.90
25718;DHT22;13574;52.040;5.692;2022-12-18T01:10:13;0.40;99.90
25718;DHT22;13574;52.040;5.692;2022-12-18T01:12:39;0.40;99.90
25718;DHT22;13574;52.040;5.692;2022-12-18T01:15:07;0.20;99.90
25718;DHT22;13574;52.040;5.692;2022-12-18T01:17:33;0.10;99.90
25718;DHT22;13574;52.040;5.692;2022-12-18T01:19:58;-0.10;99.90
25718;DHT22;13574;52.040;5.692;2022-12-18T01:22:24;-0.30;99.90
25718;DHT22;13574;52.040;5.692;2022-12-18T01:24:50;-0.70;99.90
25718;DHT22;13574;52.040;5.692;2022-12-18T01:27:15;-0.80;99.90
25718;DHT22;13574;52.040;5.692;2022-12-18T01:29:41;-0.90;99.90
25718;DHT22;13574;52.040;5.692;2022-12-18T01:32:08;-0.70;99.90
25718;DHT22;13574;52.040;5.692;2022-12-18T01:34:35;-0.50;99.90
25718;DHT22;13574;52.040;5.692;2022-12-18T01:37:03;-0.70;99.90
25718;DHT22;13574;52.040;5.692;2022-12-18T01:39:29;-0.50;99.90
25718;DHT22;13574;52.040;5.692;2022-12-18T01:41:55;-0.10;99.90
25718;DHT22;13574;52.040;5.692;2022-12-18T01:49:50;0.20;99.90
25718;DHT22;13574;52.040;5.692;2022-12-18T01:52:17;0.40;99.90
25718;DHT22;13574;52.040;5.692;2022-12-18T01:54:43;0.30;99.90
25718;DHT22;13574;52.040;5.692;2022-12-18T01:57:10;0.20;99.90
25718;DHT22;13574;52.040;5.692;2022-12-18T01:59:36;0.40;99.90
25718;DHT22;13574;52.040;5.692;2022-12-18T02:02:04;0.40;99.90
25718;DHT22;13574;52.040;5.692;2022-12-18T02:04:30;0.50;99.90
25718;DHT22;13574;52.040;5.692;2022-12-18T02:07:05;0.60;99.90
25718;DHT22;13574;52.040;5.692;2022-12-18T02:09:43;0.60;99.90
25718;DHT22;13574;52.040;5.692;2022-12-18T02:12:17;0.60;99.90
25718;DHT22;13574;52.040;5.692;2022-12-18T02:17:22;0.60;99.90
25718;DHT22;13574;52.040;5.692;2022-12-18T02:29:02;0.50;99.90
25718;DHT22;13574;52.040;5.692;2022-12-18T02:31:34;0.30;99.90
25718;DHT22;13574;52.040;5.692;2022-12-18T02:34:03;0.40;99.90
25718;DHT22;13574;52.040;5.692;2022-12-18T02:36:31;0.40;99.90
25718;DHT22;13574;52.040;5.692;2022-12-18T02:38:58;0.40;99.90
25718;DHT22;13574;52.040;5.692;2022-12-18T02:41:26;0.20;99.90
25718;DHT22;13574;52.040;5.692;2022-12-18T02:43:58;0.00;99.90
25718;DHT22;13574;52.040;5.692;2022-12-18T02:46:35;0.00;99.90
25718;DHT22;13574;52.040;5.692;2022-12-18T02:49:06;-0.20;99.90
25718;DHT22;13574;52.040;5.692;2022-12-18T02:58:10;-0.50;99.90
25718;DHT22;13574;52.040;5.692;2022-12-18T03:00:48;-0.30;99.90
25718;DHT22;13574;52.040;5.692;2022-12-18T03:03:39;-0.40;99.90
25718;DHT22;13574;52.040;5.692;2022-12-18T03:06:10;-0.40;99.90
25718;DHT22;13574;52.040;5.692;2022-12-18T03:08:41;-0.50;99.90
25718;DHT22;13574;52.040;5.692;2022-12-18T03:11:10;-0.50;99.90
25718;DHT22;13574;52.040;5.692;2022-12-18T03:13:52;-0.60;99.90
25718;DHT22;13574;52.040;5.692;2022-12-18T03:16:23;-0.60;99.90
25718;DHT22;13574;52.040;5.692;2022-12-18T03:19:03;-0.70;99.90
25718;DHT22;13574;52.040;5.692;2022-12-18T03:21:40;-0.80;99.90
25718;DHT22;13574;52.040;5.692;2022-12-18T03:24:09;-1.00;99.90
25718;DHT22;13574;52.040;5.692;2022-12-18T03:26:40;-1.10;99.90
25718;DHT22;13574;52.040;5.692;2022-12-18T03:29:10;-1.20;99.90
25718;DHT22;13574;52.040;5.692;2022-12-18T03:31:40;-1.00;99.90
25718;DHT22;13574;52.040;5.692;2022-12-18T03:34:19;-0.90;99.90
25718;DHT22;13574;52.040;5.692;2022-12-18T03:36:47;-0.60;99.90
25718;DHT22;13574;52.040;5.692;2022-12-18T03:39:13;-0.70;99.90
25718;DHT22;13574;52.040;5.692;2022-12-18T03:47:13;-0.60;99.90
25718;DHT22;13574;52.040;5.692;2022-12-18T03:49:47;-0.80;99.90
25718;DHT22;13574;52.040;5.692;2022-12-18T03:52:28;-1.10;99.90
25718;DHT22;13574;52.040;5.692;2022-12-18T03:54:56;-1.30;99.90
25718;DHT22;13574;52.040;5.692;2022-12-18T03:57:26;-1.40;99.90
25718;DHT22;13574;52.040;5.692;2022-12-18T04:00:06;-1.40;99.90
25718;DHT22;13574;52.040;5.692;2022-12-18T04:02:33;-1.50;99.90
25718;DHT22;13574;52.040;5.692;2022-12-18T04:05:03;-1.50;99.90
25718;DHT22;13574;52.040;5.692;2022-12-18T04:07:30;-1.40;99.90
25718;DHT22;13574;52.040;5.692;2022-12-18T04:09:57;-1.50;99.90
25718;DHT22;13574;52.040;5.692;2022-12-18T04:12:29;-1.40;99.90
25718;DHT22;13574;52.040;5.692;2022-12-18T04:14:55;-1.50;99.90
25718;DHT22;13574;52.040;5.692;2022-12-18T04:17:21;-1.40;99.90
25718;DHT22;13574;52.040;5.692;2022-12-18T04:19:47;-1.60;99.90
25718;DHT22;13574;52.040;5.692;2022-12-18T04:22:12;-1.70;99.90
25718;DHT22;13574;52.040;5.692;2022-12-18T04:24:38;-1.50;99.90
25718;DHT22;13574;52.040;5.692;2022-12-18T04:27:04;-1.40;99.90
25718;DHT22;13574;52.040;5.692;2022-12-18T04:29:30;-1.40;99.90
25718;DHT22;13574;52.040;5.692;2022-12-18T04:31:55;-1.50;99.90
25718;DHT22;13574;52.040;5.692;2022-12-18T04:34:21;-1.60;99.90
25718;DHT22;13574;52.040;5.692;2022-12-18T04:36:47;-1.80;99.90
25718;DHT22;13574;52.040;5.692;2022-12-18T04:39:13;-1.90;99.90
25718;DHT22;13574;52.040;5.692;2022-12-18T04:41:39;-2.00;99.90
25718;DHT22;13574;52.040;5.692;2022-12-18T04:44:05;-2.20;99.90
25718;DHT22;13574;52.040;5.692;2022-12-18T04:46:30;-2.30;99.90
25718;DHT22;13574;52.040;5.692;2022-12-18T04:48:56;-2.40;99.90
25718;DHT22;13574;52.040;5.692;2022-12-18T04:51:22;-2.20;99.90
25718;DHT22;13574;52.040;5.692;2022-12-18T04:53:47;-2.00;99.90
25718;DHT22;13574;52.040;5.692;2022-12-18T04:56:14;-1.90;99.90
25718;DHT22;13574;52.040;5.692;2022-12-18T04:58:42;-1.80;99.90
25718;DHT22;13574;52.040;5.692;2022-12-18T05:01:09;-1.70;99.90
25718;DHT22;13574;52.040;5.692;2022-12-18T05:03:35;-1.50;99.90
25718;DHT22;13574;52.040;5.692;2022-12-18T05:06:02;-1.50;99.90
25718;DHT22;13574;52.040;5.692;2022-12-18T05:08:28;-1.20;99.90
25718;DHT22;13574;52.040;5.692;2022-12-18T05:11:05;-1.20;99.90
25718;DHT22;13574;52.040;5.692;2022-12-18T05:13:33;-1.00;99.90
25718;DHT22;13574;52.040;5.692;2022-12-18T05:15:58;-0.90;99.90
25718;DHT22;13574;52.040;5.692;2022-12-18T05:18:27;-1.10;99.90
25718;DHT22;13574;52.040;5.692;2022-12-18T05:20:53;-1.00;99.90
25718;DHT22;13574;52.040;5.692;2022-12-18T05:23:20;-0.80;99.90
25718;DHT22;13574;52.040;5.692;2022-12-18T05:26:00;-0.80;99.90
25718;DHT22;13574;52.040;5.692;2022-12-18T05:28:28;-0.80;99.90
25718;DHT22;13574;52.040;5.692;2022-12-18T05:30:56;-0.70;99.90
25718;DHT22;13574;52.040;5.692;2022-12-18T05:33:23;-0.60;99.90
25718;DHT22;13574;52.040;5.692;2022-12-18T05:35:54;-0.50;99.90
25718;DHT22;13574;52.040;5.692;2022-12-18T05:38:21;-0.50;99.90
25718;DHT22;13574;52.040;5.692;2022-12-18T05:40:48;-0.60;99.90
25718;DHT22;13574;52.040;5.692;2022-12-18T05:43:14;-0.70;99.90
25718;DHT22;13574;52.040;5.692;2022-12-18T05:45:40;-0.70;99.90
25718;DHT22;13574;52.040;5.692;2022-12-18T05:48:07;-1.00;99.90
25718;DHT22;13574;52.040;5.692;2022-12-18T05:50:37;-1.40;99.90
25718;DHT22;13574;52.040;5.692;2022-12-18T05:53:04;-1.60;99.90
25718;DHT22;13574;52.040;5.692;2022-12-18T05:55:33;-1.80;99.90
25718;DHT22;13574;52.040;5.692;2022-12-18T05:58:04;-2.10;99.90
25718;DHT22;13574;52.040;5.692;2022-12-18T06:00:30;-2.30;99.90
25718;DHT22;13574;52.040;5.692;2022-12-18T06:02:57;-2.40;99.90
25718;DHT22;13574;52.040;5.692;2022-12-18T06:05:23;-2.50;99.90
25718;DHT22;13574;52.040;5.692;2022-12-18T06:07:48;-2.60;99.90
25718;DHT22;13574;52.040;5.692;2022-12-18T06:10:14;-2.60;99.90
25718;DHT22;13574;52.040;5.692;2022-12-18T06:12:40;-2.60;99.90
25718;DHT22;13574;52.040;5.692;2022-12-18T06:15:06;-2.70;99.90
25718;DHT22;13574;52.040;5.692;2022-12-18T06:17:33;-2.80;99.90
25718;DHT22;13574;52.040;5.692;2022-12-18T06:19:59;-2.80;99.90
25718;DHT22;13574;52.040;5.692;2022-12-18T06:22:25;-2.80;99.90
25718;DHT22;13574;52.040;5.692;2022-12-18T06:24:51;-2.70;99.90
25718;DHT22;13574;52.040;5.692;2022-12-18T06:27:17;-2.60;99.90
25718;DHT22;13574;52.040;5.692;2022-12-18T06:29:42;-2.70;99.90
25718;DHT22;13574;52.040;5.692;2022-12-18T06:32:08;-2.80;99.90
25718;DHT22;13574;52.040;5.692;2022-12-18T06:34:34;-2.80;99.90
25718;DHT22;13574;52.040;5.692;2022-12-18T06:37:02;-2.70;99.90
25718;DHT22;13574;52.040;5.692;2022-12-18T06:39:27;-2.80;99.90
25718;DHT22;13574;52.040;5.692;2022-12-18T06:41:53;-2.80;99.90
25718;DHT22;13574;52.040;5.692;2022-12-18T06:44:19;-2.80;99.90
25718;DHT22;13574;52.040;5.692;2022-12-18T06:46:45;-2.90;99.90
25718;DHT22;13574;52.040;5.692;2022-12-18T06:49:10;-2.90;99.90
25718;DHT22;13574;52.040;5.692;2022-12-18T06:51:36;-2.80;99.90
25718;DHT22;13574;52.040;5.692;2022-12-18T06:54:02;-2.80;99.90
25718;DHT22;13574;52.040;5.692;2022-12-18T06:56:28;-2.60;99.90
25718;DHT22;13574;52.040;5.692;2022-12-18T06:58:54;-2.60;99.90
25718;DHT22;13574;52.040;5.692;2022-12-18T07:01:21;-2.60;99.90
25718;DHT22;13574;52.040;5.692;2022-12-18T07:03:47;-2.40;99.90
25718;DHT22;13574;52.040;5.692;2022-12-18T07:06:15;-2.30;99.90
25718;DHT22;13574;52.040;5.692;2022-12-18T07:08:41;-2.30;99.90
25718;DHT22;13574;52.040;5.692;2022-12-18T07:11:07;-2.40;99.90
25718;DHT22;13574;52.040;5.692;2022-12-18T07:13:32;-2.50;99.90
25718;DHT22;13574;52.040;5.692;2022-12-18T07:16:09;-2.40;99.90
25718;DHT22;13574;52.040;5.692;2022-12-18T07:18:35;-2.20;99.90
25718;DHT22;13574;52.040;5.692;2022-12-18T07:21:05;-2.00;99.90
25718;DHT22;13574;52.040;5.692;2022-12-18T07:23:32;-1.90;99.90
25718;DHT22;13574;52.040;5.692;2022-12-18T07:26:04;-1.90;99.90
25718;DHT22;13574;52.040;5.692;2022-12-18T07:28:31;-1.80;99.90
25718;DHT22;13574;52.040;5.692;2022-12-18T07:30:57;-1.60;99.90
25718;DHT22;13574;52.040;5.692;2022-12-18T07:33:22;-1.60;99.90
25718;DHT22;13574;52.040;5.692;2022-12-18T07:35:48;-1.80;99.90
25718;DHT22;13574;52.040;5.692;2022-12-18T07:38:13;-1.90;99.90
25718;DHT22;13574;52.040;5.692;2022-12-18T07:40:39;-1.70;99.90
25718;DHT22;13574;52.040;5.692;2022-12-18T07:43:05;-1.60;99.90
25718;DHT22;13574;52.040;5.692;2022-12-18T07:45:30;-1.70;99.90
25718;DHT22;13574;52.040;5.692;2022-12-18T07:47:56;-1.80;99.90
25718;DHT22;13574;52.040;5.692;2022-12-18T07:50:21;-2.00;99.90
25718;DHT22;13574;52.040;5.692;2022-12-18T07:52:47;-1.90;99.90
25718;DHT22;13574;52.040;5.692;2022-12-18T07:55:13;-1.80;99.90
25718;DHT22;13574;52.040;5.692;2022-12-18T07:57:39;-1.90;99.90
25718;DHT22;13574;52.040;5.692;2022-12-18T08:00:05;-1.90;99.90
25718;DHT22;13574;52.040;5.692;2022-12-18T08:02:31;-2.00;99.90
25718;DHT22;13574;52.040;5.692;2022-12-18T08:04:57;-2.00;99.90
25718;DHT22;13574;52.040;5.692;2022-12-18T08:07:23;-2.00;99.90
25718;DHT22;13574;52.040;5.692;2022-12-18T08:09:49;-1.90;99.90
25718;DHT22;13574;52.040;5.692;2022-12-18T08:12:14;-1.80;99.90
25718;DHT22;13574;52.040;5.692;2022-12-18T08:14:40;-1.90;99.90
25718;DHT22;13574;52.040;5.692;2022-12-18T08:17:09;-1.80;99.90
25718;DHT22;13574;52.040;5.692;2022-12-18T08:19:34;-1.70;99.90
25718;DHT22;13574;52.040;5.692;2022-12-18T08:22:00;-1.60;99.90
25718;DHT22;13574;52.040;5.692;2022-12-18T08:24:28;-1.50;99.90
25718;DHT22;13574;52.040;5.692;2022-12-18T08:27:02;-1.30;99.90
25718;DHT22;13574;52.040;5.692;2022-12-18T08:29:30;-1.30;99.90
25718;DHT22;13574;52.040;5.692;2022-12-18T08:32:11;-1.10;99.90
25718;DHT22;13574;52.040;5.692;2022-12-18T08:34:37;-1.10;99.90
25718;DHT22;13574;52.040;5.692;2022-12-18T08:37:03;-1.10;99.90
25718;DHT22;13574;52.040;5.692;2022-12-18T08:39:31;-0.80;99.90
25718;DHT22;13574;52.040;5.692;2022-12-18T08:41:57;-0.40;99.90
25718;DHT22;13574;52.040;5.692;2022-12-18T08:44:41;-0.20;99.90
25718;DHT22;13574;52.040;5.692;2022-12-18T08:47:07;-0.30;99.90
25718;DHT22;13574;52.040;5.692;2022-12-18T08:49:36;-0.30;99.90
25718;DHT22;13574;52.040;5.692;2022-12-18T08:52:04;-0.20;99.90
25718;DHT22;13574;52.040;5.692;2022-12-18T08:54:30;-0.10;99.90
25718;DHT22;13574;52.040;5.692;2022-12-18T08:56:56;0.20;99.90
25718;DHT22;13574;52.040;5.692;2022-12-18T08:59:22;0.00;99.90
25718;DHT22;13574;52.040;5.692;2022-12-18T09:01:49;-0.10;99.90
25718;DHT22;13574;52.040;5.692;2022-12-18T09:04:17;0.00;99.90
25718;DHT22;13574;52.040;5.692;2022-12-18T09:06:46;0.10;99.90
25718;DHT22;13574;52.040;5.692;2022-12-18T09:09:12;0.20;99.90
25718;DHT22;13574;52.040;5.692;2022-12-18T09:11:38;0.30;99.90
25718;DHT22;13574;52.040;5.692;2022-12-18T09:14:04;0.10;99.90
25718;DHT22;13574;52.040;5.692;2022-12-18T09:16:30;0.00;99.90
25718;DHT22;13574;52.040;5.692;2022-12-18T09:18:57;-0.10;99.90
25718;DHT22;13574;52.040;5.692;2022-12-18T09:21:35;-0.10;99.90
25718;DHT22;13574;52.040;5.692;2022-12-18T09:24:01;-0.20;99.90
25718;DHT22;13574;52.040;5.692;2022-12-18T09:26:30;-0.10;99.90
25718;DHT22;13574;52.040;5.692;2022-12-18T09:28:55;-0.10;99.90
25718;DHT22;13574;52.040;5.692;2022-12-18T09:31:24;0.00;99.90
25718;DHT22;13574;52.040;5.692;2022-12-18T09:33:50;0.20;99.90
25718;DHT22;13574;52.040;5.692;2022-12-18T09:36:17;0.20;99.90
25718;DHT22;13574;52.040;5.692;2022-12-18T09:38:44;0.30;99.90
25718;DHT22;13574;52.040;5.692;2022-12-18T09:44:00;0.60;99.90
25718;DHT22;13574;52.040;5.692;2022-12-18T09:46:37;0.70;99.90
25718;DHT22;13574;52.040;5.692;2022-12-18T09:49:07;0.60;99.90
25718;DHT22;13574;52.040;5.692;2022-12-18T09:51:46;0.70;99.90
25718;DHT22;13574;52.040;5.692;2022-12-18T09:54:25;0.90;99.90
25718;DHT22;13574;52.040;5.692;2022-12-18T09:56:51;1.00;99.90
25718;DHT22;13574;52.040;5.692;2022-12-18T09:59:26;1.00;99.90
25718;DHT22;13574;52.040;5.692;2022-12-18T10:01:55;0.70;99.90
25718;DHT22;13574;52.040;5.692;2022-12-18T10:04:20;0.50;99.90
25718;DHT22;13574;52.040;5.692;2022-12-18T10:12:36;0.80;99.90
25718;DHT22;13574;52.040;5.692;2022-12-18T10:15:25;0.70;99.90
25718;DHT22;13574;52.040;5.692;2022-12-18T10:20:58;0.90;99.90
25718;DHT22;13574;52.040;5.692;2022-12-18T10:24:00;1.10;99.90
25718;DHT22;13574;52.040;5.692;2022-12-18T10:26:36;1.30;99.90
25718;DHT22;13574;52.040;5.692;2022-12-18T10:29:11;1.60;99.90
25718;DHT22;13574;52.040;5.692;2022-12-18T10:31:37;1.50;99.90
25718;DHT22;13574;52.040;5.692;2022-12-18T10:34:03;1.80;99.90
25718;DHT22;13574;52.040;5.692;2022-12-18T10:36:29;1.70;99.90
25718;DHT22;13574;52.040;5.692;2022-12-18T10:39:20;1.70;99.90
25718;DHT22;13574;52.040;5.692;2022-12-18T10:41:51;1.80;99.90
25718;DHT22;13574;52.040;5.692;2022-12-18T10:44:22;1.80;99.90
25718;DHT22;13574;52.040;5.692;2022-12-18T10:46:51;1.90;99.90
25718;DHT22;13574;52.040;5.692;2022-12-18T10:49:30;1.90;99.90
25718;DHT22;13574;52.040;5.692;2022-12-18T10:52:17;1.90;99.90
25718;DHT22;13574;52.040;5.692;2022-12-18T10:54:55;1.90;99.90
25718;DHT22;13574;52.040;5.692;2022-12-18T10:57:32;1.80;99.90
25718;DHT22;13574;52.040;5.692;2022-12-18T11:02:49;2.30;99.90
25718;DHT22;13574;52.040;5.692;2022-12-18T11:05:34;2.60;99.90
25718;DHT22;13574;52.040;5.692;2022-12-18T11:08:02;2.90;99.90
25718;DHT22;13574;52.040;5.692;2022-12-18T11:10:32;2.80;99.90
25718;DHT22;13574;52.040;5.692;2022-12-18T11:13:16;3.00;99.90
25718;DHT22;13574;52.040;5.692;2022-12-18T11:15:43;3.00;99.90
25718;DHT22;13574;52.040;5.692;2022-12-18T11:20:42;2.70;99.90
25718;DHT22;13574;52.040;5.692;2022-12-18T11:23:12;2.70;99.90
25718;DHT22;13574;52.040;5.692;2022-12-18T11:25:39;2.60;99.90
25718;DHT22;13574;52.040;5.692;2022-12-18T11:28:08;2.80;99.90
25718;DHT22;13574;52.040;5.692;2022-12-18T11:31:09;3.00;99.90
25718;DHT22;13574;52.040;5.692;2022-12-18T11:33:39;2.70;99.90
25718;DHT22;13574;52.040;5.692;2022-12-18T11:36:08;2.80;99.90
25718;DHT22;13574;52.040;5.692;2022-12-18T11:38:36;2.70;99.90
25718;DHT22;13574;52.040;5.692;2022-12-18T11:41:09;2.90;99.90
25718;DHT22;13574;52.040;5.692;2022-12-18T11:43:43;3.30;99.90
25718;DHT22;13574;52.040;5.692;2022-12-18T11:46:18;3.30;99.90
25718;DHT22;13574;52.040;5.692;2022-12-18T11:49:10;3.10;99.90
25718;DHT22;13574;52.040;5.692;2022-12-18T11:51:43;3.10;99.90
25718;DHT22;13574;52.040;5.692;2022-12-18T11:54:15;3.10;99.90
25718;DHT22;13574;52.040;5.692;2022-12-18T11:56:51;3.10;99.90
25718;DHT22;13574;52.040;5.692;2022-12-18T11:59:40;3.30;99.90
25718;DHT22;13574;52.040;5.692;2022-12-18T12:05:55;3.60;99.90
25718;DHT22;13574;52.040;5.692;2022-12-18T12:11:01;3.60;99.90
25718;DHT22;13574;52.040;5.692;2022-12-18T12:19:12;3.90;99.90
25718;DHT22;13574;52.040;5.692;2022-12-18T12:21:43;3.70;99.90
25718;DHT22;13574;52.040;5.692;2022-12-18T12:24:19;3.70;99.90
25718;DHT22;13574;52.040;5.692;2022-12-18T12:39:56;4.00;99.90
25718;DHT22;13574;52.040;5.692;2022-12-18T12:42:43;4.00;99.90
25718;DHT22;13574;52.040;5.692;2022-12-18T12:48:24;4.10;99.90
25718;DHT22;13574;52.040;5.692;2022-12-18T12:53:50;4.00;99.90
25718;DHT22;13574;52.040;5.692;2022-12-18T12:56:27;4.30;99.90
25718;DHT22;13574;52.040;5.692;2022-12-18T13:01:46;4.10;99.90
25718;DHT22;13574;52.040;5.692;2022-12-18T13:04:32;4.30;99.90
25718;DHT22;13574;52.040;5.692;2022-12-18T13:09:24;4.10;99.90
25718;DHT22;13574;52.040;5.692;2022-12-18T13:11:50;3.80;99.90
25718;DHT22;13574;52.040;5.692;2022-12-18T13:14:39;3.80;99.90
25718;DHT22;13574;52.040;5.692;2022-12-18T13:19:51;3.80;99.90
25718;DHT22;13574;52.040;5.692;2022-12-18T13:25:03;3.60;99.90
25718;DHT22;13574;52.040;5.692;2022-12-18T13:28:06;3.80;99.90
25718;DHT22;13574;52.040;5.692;2022-12-18T13:40:58;3.70;99.90
25718;DHT22;13574;52.040;5.692;2022-12-18T13:43:35;3.70;99.90
25718;DHT22;13574;52.040;5.692;2022-12-18T13:46:06;3.70;99.90
25718;DHT22;13574;52.040;5.692;2022-12-18T13:48:50;3.70;99.90
25718;DHT22;13574;52.040;5.692;2022-12-18T13:51:17;3.80;99.90
25718;DHT22;13574;52.040;5.692;2022-12-18T13:53:46;3.50;99.90
25718;DHT22;13574;52.040;5.692;2022-12-18T13:56:26;3.30;99.90
25718;DHT22;13574;52.040;5.692;2022-12-18T13:59:12;3.40;99.90
25718;DHT22;13574;52.040;5.692;2022-12-18T14:04:22;3.60;99.90
25718;DHT22;13574;52.040;5.692;2022-12-18T14:06:51;3.50;99.90
25718;DHT22;13574;52.040;5.692;2022-12-18T14:09:28;3.30;99.90
25718;DHT22;13574;52.040;5.692;2022-12-18T14:11:55;3.60;99.90
25718;DHT22;13574;52.040;5.692;2022-12-18T14:14:43;3.50;99.90
25718;DHT22;13574;52.040;5.692;2022-12-18T14:17:11;3.70;99.90
25718;DHT22;13574;52.040;5.692;2022-12-18T14:19:40;3.90;99.90
25718;DHT22;13574;52.040;5.692;2022-12-18T14:22:15;3.70;99.90
25718;DHT22;13574;52.040;5.692;2022-12-18T14:24:41;3.80;99.90
25718;DHT22;13574;52.040;5.692;2022-12-18T14:27:24;3.50;99.90
25718;DHT22;13574;52.040;5.692;2022-12-18T14:29:50;3.40;99.90
25718;DHT22;13574;52.040;5.692;2022-12-18T14:32:19;3.50;99.90
25718;DHT22;13574;52.040;5.692;2022-12-18T14:34:50;3.40;99.90
25718;DHT22;13574;52.040;5.692;2022-12-18T14:37:20;3.60;99.90
25718;DHT22;13574;52.040;5.692;2022-12-18T14:39:54;3.60;99.90
25718;DHT22;13574;52.040;5.692;2022-12-18T14:42:22;3.60;99.90
25718;DHT22;13574;52.040;5.692;2022-12-18T14:44:47;3.50;99.90
25718;DHT22;13574;52.040;5.692;2022-12-18T14:47:17;3.50;99.90
25718;DHT22;13574;52.040;5.692;2022-12-18T14:49:43;3.80;99.90
25718;DHT22;13574;52.040;5.692;2022-12-18T14:52:23;3.70;99.90
25718;DHT22;13574;52.040;5.692;2022-12-18T14:54:51;3.80;99.90
25718;DHT22;13574;52.040;5.692;2022-12-18T14:57:25;3.80;99.90
25718;DHT22;13574;52.040;5.692;2022-12-18T15:00:07;3.80;99.90
25718;DHT22;13574;52.040;5.692;2022-12-18T15:02:39;3.90;99.90
25718;DHT22;13574;52.040;5.692;2022-12-18T15:07:45;3.90;99.90
25718;DHT22;13574;52.040;5.692;2022-12-18T15:13:23;3.60;99.90
25718;DHT22;13574;52.040;5.692;2022-12-18T15:15:50;3.60;99.90
25718;DHT22;13574;52.040;5.692;2022-12-18T15:18:18;3.70;99.90
25718;DHT22;13574;52.040;5.692;2022-12-18T15:21:11;3.90;99.90
25718;DHT22;13574;52.040;5.692;2022-12-18T15:23:50;3.70;99.90
25718;DHT22;13574;52.040;5.692;2022-12-18T15:26:21;3.80;99.90
25718;DHT22;13574;52.040;5.692;2022-12-18T15:28:54;3.90;99.90
25718;DHT22;13574;52.040;5.692;2022-12-18T15:31:35;4.00;99.90
25718;DHT22;13574;52.040;5.692;2022-12-18T15:34:19;3.90;99.90
25718;DHT22;13574;52.040;5.692;2022-12-18T15:36:46;4.00;99.90
25718;DHT22;13574;52.040;5.692;2022-12-18T15:39:12;4.10;99.90
25718;DHT22;13574;52.040;5.692;2022-12-18T15:41:41;4.10;99.90
25718;DHT22;13574;52.040;5.692;2022-12-18T15:44:27;4.30;99.90
25718;DHT22;13574;52.040;5.692;2022-12-18T15:46:55;4.40;99.90
25718;DHT22;13574;52.040;5.692;2022-12-18T15:49:21;4.30;99.90
25718;DHT22;13574;52.040;5.692;2022-12-18T15:51:52;4.40;99.90
25718;DHT22;13574;52.040;5.692;2022-12-18T15:54:19;4.50;99.90
25718;DHT22;13574;52.040;5.692;2022-12-18T15:57:07;4.50;99.90
25718;DHT22;13574;52.040;5.692;2022-12-18T15:59:49;4.40;99.90
25718;DHT22;13574;52.040;5.692;2022-12-18T16:02:17;4.40;99.90
25718;DHT22;13574;52.040;5.692;2022-12-18T16:04:43;4.20;99.90
25718;DHT22;13574;52.040;5.692;2022-12-18T16:07:11;4.40;99.90
25718;DHT22;13574;52.040;5.692;2022-12-18T16:09:37;4.20;99.90
25718;DHT22;13574;52.040;5.692;2022-12-18T16:12:04;4.20;99.90
25718;DHT22;13574;52.040;5.692;2022-12-18T16:14:31;4.10;99.90
25718;DHT22;13574;52.040;5.692;2022-12-18T16:17:00;4.30;99.90
25718;DHT22;13574;52.040;5.692;2022-12-18T16:19:26;4.30;99.90
25718;DHT22;13574;52.040;5.692;2022-12-18T16:21:56;4.40;99.90
25718;DHT22;13574;52.040;5.692;2022-12-18T16:24:24;4.50;99.90
25718;DHT22;13574;52.040;5.692;2022-12-18T16:26:51;4.40;99.90
25718;DHT22;13574;52.040;5.692;2022-12-18T16:29:18;4.20;99.90
25718;DHT22;13574;52.040;5.692;2022-12-18T16:31:44;4.40;99.90
25718;DHT22;13574;52.040;5.692;2022-12-18T16:36:54;4.40;99.90
25718;DHT22;13574;52.040;5.692;2022-12-18T16:39:20;4.30;99.90
25718;DHT22;13574;52.040;5.692;2022-12-18T16:41:49;4.40;99.90
25718;DHT22;13574;52.040;5.692;2022-12-18T16:44:39;4.30;99.90
25718;DHT22;13574;52.040;5.692;2022-12-18T16:54:28;4.20;99.90
25718;DHT22;13574;52.040;5.692;2022-12-18T17:03:05;3.90;99.90
25718;DHT22;13574;52.040;5.692;2022-12-18T17:05:34;3.90;99.90
25718;DHT22;13574;52.040;5.692;2022-12-18T17:11:15;4.10;99.90
25718;DHT22;13574;52.040;5.692;2022-12-18T17:13:40;4.10;99.90
25718;DHT22;13574;52.040;5.692;2022-12-18T17:16:07;4.10;99.90
25718;DHT22;13574;52.040;5.692;2022-12-18T17:18:34;4.20;99.90
25718;DHT22;13574;52.040;5.692;2022-12-18T17:21:00;4.10;99.90
25718;DHT22;13574;52.040;5.692;2022-12-18T17:23:27;4.40;99.90
25718;DHT22;13574;52.040;5.692;2022-12-18T17:25:59;4.40;99.90
25718;DHT22;13574;52.040;5.692;2022-12-18T17:28:26;4.10;99.90
25718;DHT22;13574;52.040;5.692;2022-12-18T17:30:53;4.30;99.90
25718;DHT22;13574;52.040;5.692;2022-12-18T17:33:19;4.40;99.90
25718;DHT22;13574;52.040;5.692;2022-12-18T17:35:45;4.10;99.90
25718;DHT22;13574;52.040;5.692;2022-12-18T17:38:11;4.00;99.90
25718;DHT22;13574;52.040;5.692;2022-12-18T17:40:37;4.10;99.90
25718;DHT22;13574;52.040;5.692;2022-12-18T17:43:03;4.20;99.90
25718;DHT22;13574;52.040;5.692;2022-12-18T17:45:29;4.40;99.90
25718;DHT22;13574;52.040;5.692;2022-12-18T17:47:54;4.20;99.90
25718;DHT22;13574;52.040;5.692;2022-12-18T17:50:20;4.20;99.90
25718;DHT22;13574;52.040;5.692;2022-12-18T17:52:45;4.30;99.90
25718;DHT22;13574;52.040;5.692;2022-12-18T17:55:11;4.10;99.90
25718;DHT22;13574;52.040;5.692;2022-12-18T17:57:37;4.00;99.90
25718;DHT22;13574;52.040;5.692;2022-12-18T18:00:04;4.30;99.90
25718;DHT22;13574;52.040;5.692;2022-12-18T18:02:30;4.30;99.90